sensor_id;sensor_type;location;lat;lon;timestamp;pressure;altitude;pressure_sealevel;temperature;humidity
5350;BME280;2697;42.144;24.794;2023-01-28T00:01:10;153893.22;;;5.15;100.00
5350;BME280;2697;42.144;24.794;2023-01-28T00:03:36;153874.84;;;5.08;100.00
5350;BME280;2697;42.144;24.794;2023-01-28T00:06:11;153908.97;;;5.21;100.00
5350;BME280;2697;42.144;24.794;2023-01-28T00:08:37;153897.16;;;5.17;100.00
5350;BME280;2697;42.144;24.794;2023-01-28T00:11:04;153895.84;;;5.16;100.00
5350;BME280;2697;42.144;24.794;2023-01-28T00:13:30;153867.00;;;5.05;100.00
5350;BME280;2697;42.144;24.794;2023-01-28T00:16:01;153830.28;;;4.91;100.00
5350;BME280;2697;42.144;24.794;2023-01-28T00:18:29;153867.00;;;5.05;100.00
5350;BME280;2697;42.144;24.794;2023-01-28T00:20:59;153906.31;;;5.20;100.00
5350;BME280;2697;42.144;24.794;2023-01-28T00:23:29;153835.53;;;4.93;100.00
5350;BME280;2697;42.144;24.794;2023-01-28T00:25:58;153853.88;;;5.00;100.00
5350;BME280;2697;42.144;24.794;2023-01-28T00:28:23;153870.94;;;5.06;100.00
5350;BME280;2697;42.144;24.794;2023-01-28T00:30:49;153840.81;;;4.95;100.00
5350;BME280;2697;42.144;24.794;2023-01-28T00:33:14;153838.19;;;4.94;100.00
5350;BME280;2697;42.144;24.794;2023-01-28T00:35:40;153806.69;;;4.81;100.00
5350;BME280;2697;42.144;24.794;2023-01-28T00:38:05;153821.13;;;4.87;100.00
5350;BME280;2697;42.144;24.794;2023-01-28T00:40:31;153796.25;;;4.77;100.00
5350;BME280;2697;42.144;24.794;2023-01-28T00:42:57;153810.63;;;4.83;100.00
5350;BME280;2697;42.144;24.794;2023-01-28T00:45:22;153819.81;;;4.86;100.00
5350;BME280;2697;42.144;24.794;2023-01-28T00:47:47;153793.63;;;4.76;100.00
5350;BME280;2697;42.144;24.794;2023-01-28T00:50:13;153819.81;;;4.86;100.00
5350;BME280;2697;42.144;24.794;2023-01-28T00:52:39;153835.53;;;4.93;100.00
5350;BME280;2697;42.144;24.794;2023-01-28T00:55:05;153834.22;;;4.92;100.00
5350;BME280;2697;42.144;24.794;2023-01-28T00:57:31;153846.03;;;4.97;100.00
5350;BME280;2697;42.144;24.794;2023-01-28T00:59:56;153851.25;;;4.99;100.00
5350;BME280;2697;42.144;24.794;2023-01-28T01:02:21;153842.13;;;4.95;100.00
5350;BME280;2697;42.144;24.794;2023-01-28T01:04:47;153830.28;;;4.91;100.00
5350;BME280;2697;42.144;24.794;2023-01-28T01:07:27;153823.75;;;4.88;100.00
5350;BME280;2697;42.144;24.794;2023-01-28T01:10:15;153832.91;;;4.92;100.00
5350;BME280;2697;42.144;24.794;2023-01-28T01:12:41;153827.69;;;4.90;100.00
5350;BME280;2697;42.144;24.794;2023-01-28T01:15:08;153840.81;;;4.95;100.00
5350;BME280;2697;42.144;24.794;2023-01-28T01:17:35;153822.44;;;4.88;100.00
5350;BME280;2697;42.144;24.794;2023-01-28T01:20:03;153839.50;;;4.94;100.00
5350;BME280;2697;42.144;24.794;2023-01-28T01:22:32;153835.53;;;4.93;100.00
5350;BME280;2697;42.144;24.794;2023-01-28T01:24:58;153836.84;;;4.93;100.00
5350;BME280;2697;42.144;24.794;2023-01-28T01:27:23;153830.28;;;4.91;100.00
5350;BME280;2697;42.144;24.794;2023-01-28T01:29:48;153819.81;;;4.86;100.00
5350;BME280;2697;42.144;24.794;2023-01-28T01:32:14;153840.81;;;4.95;100.00
5350;BME280;2697;42.144;24.794;2023-01-28T01:34:39;153842.13;;;4.95;100.00
5350;BME280;2697;42.144;24.794;2023-01-28T01:37:04;153851.25;;;4.99;100.00
5350;BME280;2697;42.144;24.794;2023-01-28T01:39:32;153821.13;;;4.87;100.00
5350;BME280;2697;42.144;24.794;2023-01-28T01:41:58;153847.34;;;4.97;100.00
5350;BME280;2697;42.144;24.794;2023-01-28T01:45:02;153822.44;;;4.88;100.00
5350;BME280;2697;42.144;24.794;2023-01-28T01:50:19;153846.03;;;4.97;100.00
5350;BME280;2697;42.144;24.794;2023-01-28T01:52:51;153825.06;;;4.89;100.00
5350;BME280;2697;42.144;24.794;2023-01-28T01:55:20;153857.81;;;5.01;100.00
5350;BME280;2697;42.144;24.794;2023-01-28T01:57:47;153851.25;;;4.99;100.00
5350;BME280;2697;42.144;24.794;2023-01-28T02:00:14;153846.03;;;4.97;100.00
5350;BME280;2697;42.144;24.794;2023-01-28T02:02:43;153843.41;;;4.96;100.00
5350;BME280;2697;42.144;24.794;2023-01-28T02:05:12;153827.69;;;4.90;100.00
5350;BME280;2697;42.144;24.794;2023-01-28T02:07:38;153830.28;;;4.91;100.00
5350;BME280;2697;42.144;24.794;2023-01-28T02:10:05;153893.22;;;5.15;100.00
5350;BME280;2697;42.144;24.794;2023-01-28T02:12:41;153804.09;;;4.80;100.00
5350;BME280;2697;42.144;24.794;2023-01-28T02:15:11;153895.84;;;5.16;100.00
5350;BME280;2697;42.144;24.794;2023-01-28T02:17:39;153861.78;;;5.03;100.00
5350;BME280;2697;42.144;24.794;2023-01-28T02:20:26;153878.78;;;5.09;100.00
5350;BME280;2697;42.144;24.794;2023-01-28T02:27:18;153874.84;;;5.08;100.00
5350;BME280;2697;42.144;24.794;2023-01-28T02:29:46;153880.09;;;5.10;100.00
5350;BME280;2697;42.144;24.794;2023-01-28T02:32:58;153852.56;;;4.99;100.00
5350;BME280;2697;42.144;24.794;2023-01-28T02:35:06;153893.22;;;5.15;100.00
5350;BME280;2697;42.144;24.794;2023-01-28T02:37:59;153877.47;;;5.09;100.00
5350;BME280;2697;42.144;24.794;2023-01-28T02:40:29;153874.84;;;5.08;100.00
5350;BME280;2697;42.144;24.794;2023-01-28T02:42:56;153874.84;;;5.08;100.00
5350;BME280;2697;42.144;24.794;2023-01-28T02:45:30;153870.94;;;5.06;100.00
5350;BME280;2697;42.144;24.794;2023-01-28T02:48:15;153886.69;;;5.12;100.00
5350;BME280;2697;42.144;24.794;2023-01-28T02:51:16;153885.38;;;5.12;100.00
5350;BME280;2697;42.144;24.794;2023-01-28T02:53:53;153891.91;;;5.14;100.00
5350;BME280;2697;42.144;24.794;2023-01-28T02:59:53;153869.63;;;5.06;100.00
5350;BME280;2697;42.144;24.794;2023-01-28T03:02:29;153877.47;;;5.09;100.00
5350;BME280;2697;42.144;24.794;2023-01-28T03:05:22;153856.50;;;5.01;100.00
5350;BME280;2697;42.144;24.794;2023-01-28T03:07:51;153860.41;;;5.02;100.00
5350;BME280;2697;42.144;24.794;2023-01-28T03:10:20;153852.56;;;4.99;100.00
5350;BME280;2697;42.144;24.794;2023-01-28T03:12:50;153836.84;;;4.93;100.00
5350;BME280;2697;42.144;24.794;2023-01-28T03:15:46;153856.50;;;5.01;100.00
5350;BME280;2697;42.144;24.794;2023-01-28T03:18:46;153864.41;;;5.04;100.00
5350;BME280;2697;42.144;24.794;2023-01-28T03:21:40;153877.47;;;5.09;100.00
5350;BME280;2697;42.144;24.794;2023-01-28T03:24:30;153843.41;;;4.96;100.00
5350;BME280;2697;42.144;24.794;2023-01-28T03:30:21;153880.09;;;5.10;100.00
5350;BME280;2697;42.144;24.794;2023-01-28T03:33:06;153864.41;;;5.04;100.00
5350;BME280;2697;42.144;24.794;2023-01-28T03:35:50;153860.41;;;5.02;100.00
5350;BME280;2697;42.144;24.794;2023-01-28T03:38:34;153838.19;;;4.94;100.00
5350;BME280;2697;42.144;24.794;2023-01-28T03:41:07;153846.03;;;4.97;100.00
5350;BME280;2697;42.144;24.794;2023-01-28T03:43:34;153839.50;;;4.94;100.00
5350;BME280;2697;42.144;24.794;2023-01-28T03:46:01;153848.66;;;4.98;100.00
5350;BME280;2697;42.144;24.794;2023-01-28T03:48:27;153810.63;;;4.83;100.00
5350;BME280;2697;42.144;24.794;2023-01-28T03:50:56;153851.25;;;4.99;100.00
5350;BME280;2697;42.144;24.794;2023-01-28T03:53:21;153822.44;;;4.88;100.00
5350;BME280;2697;42.144;24.794;2023-01-28T03:55:48;153839.50;;;4.94;100.00
5350;BME280;2697;42.144;24.794;2023-01-28T03:58:15;153846.03;;;4.97;100.00
5350;BME280;2697;42.144;24.794;2023-01-28T04:00:41;153804.09;;;4.80;100.00
5350;BME280;2697;42.144;24.794;2023-01-28T04:03:12;153819.81;;;4.86;100.00
5350;BME280;2697;42.144;24.794;2023-01-28T04:05:46;153809.31;;;4.82;100.00
5350;BME280;2697;42.144;24.794;2023-01-28T04:08:21;153793.63;;;4.76;100.00
5350;BME280;2697;42.144;24.794;2023-01-28T04:10:46;153784.41;;;4.73;100.00
5350;BME280;2697;42.144;24.794;2023-01-28T04:13:11;153785.72;;;4.73;100.00
5350;BME280;2697;42.144;24.794;2023-01-28T04:15:37;153745.16;;;4.57;100.00
5350;BME280;2697;42.144;24.794;2023-01-28T04:18:02;153779.19;;;4.71;100.00
5350;BME280;2697;42.144;24.794;2023-01-28T04:20:28;153784.41;;;4.73;100.00
5350;BME280;2697;42.144;24.794;2023-01-28T04:22:54;153767.41;;;4.66;100.00
5350;BME280;2697;42.144;24.794;2023-01-28T04:25:19;153749.06;;;4.59;100.00
5350;BME280;2697;42.144;24.794;2023-01-28T04:27:44;153743.84;;;4.57;100.00
5350;BME280;2697;42.144;24.794;2023-01-28T04:30:10;153745.16;;;4.57;100.00
5350;BME280;2697;42.144;24.794;2023-01-28T04:32:35;153750.38;;;4.60;100.00
5350;BME280;2697;42.144;24.794;2023-01-28T04:35:01;153714.97;;;4.46;100.00
5350;BME280;2697;42.144;24.794;2023-01-28T04:37:26;153708.44;;;4.43;100.00
5350;BME280;2697;42.144;24.794;2023-01-28T04:39:51;153683.53;;;4.34;100.00
5350;BME280;2697;42.144;24.794;2023-01-28T04:42:17;153694.06;;;4.38;100.00
5350;BME280;2697;42.144;24.794;2023-01-28T04:44:42;153720.25;;;4.48;100.00
5350;BME280;2697;42.144;24.794;2023-01-28T04:47:07;153696.66;;;4.39;100.00
5350;BME280;2697;42.144;24.794;2023-01-28T04:49:33;153679.63;;;4.32;100.00
5350;BME280;2697;42.144;24.794;2023-01-28T04:51:58;153670.47;;;4.28;100.00
5350;BME280;2697;42.144;24.794;2023-01-28T04:54:23;153673.09;;;4.29;100.00
5350;BME280;2697;42.144;24.794;2023-01-28T04:56:49;153694.06;;;4.38;100.00
5350;BME280;2697;42.144;24.794;2023-01-28T04:59:14;153714.97;;;4.46;100.00
5350;BME280;2697;42.144;24.794;2023-01-28T05:01:39;153704.50;;;4.42;100.00
5350;BME280;2697;42.144;24.794;2023-01-28T05:04:05;153720.25;;;4.48;100.00
5350;BME280;2697;42.144;24.794;2023-01-28T05:06:31;153712.34;;;4.45;100.00
5350;BME280;2697;42.144;24.794;2023-01-28T05:08:56;153722.88;;;4.49;100.00
5350;BME280;2697;42.144;24.794;2023-01-28T05:11:22;153730.72;;;4.52;100.00
5350;BME280;2697;42.144;24.794;2023-01-28T05:13:48;153741.22;;;4.56;100.00
5350;BME280;2697;42.144;24.794;2023-01-28T05:16:13;153743.84;;;4.57;100.00
5350;BME280;2697;42.144;24.794;2023-01-28T05:18:38;153751.69;;;4.60;100.00
5350;BME280;2697;42.144;24.794;2023-01-28T05:21:04;153756.91;;;4.62;100.00
5350;BME280;2697;42.144;24.794;2023-01-28T05:23:31;153779.19;;;4.71;100.00
5350;BME280;2697;42.144;24.794;2023-01-28T05:25:56;153791.00;;;4.75;100.00
5350;BME280;2697;42.144;24.794;2023-01-28T05:28:22;153788.34;;;4.74;100.00
5350;BME280;2697;42.144;24.794;2023-01-28T05:30:47;153801.47;;;4.79;100.00
5350;BME280;2697;42.144;24.794;2023-01-28T05:33:12;153784.41;;;4.73;100.00
5350;BME280;2697;42.144;24.794;2023-01-28T05:35:38;153797.53;;;4.78;100.00
5350;BME280;2697;42.144;24.794;2023-01-28T05:38:04;153794.94;;;4.77;100.00
5350;BME280;2697;42.144;24.794;2023-01-28T05:40:29;153793.63;;;4.76;100.00
5350;BME280;2697;42.144;24.794;2023-01-28T05:42:54;153775.25;;;4.69;100.00
5350;BME280;2697;42.144;24.794;2023-01-28T05:45:20;153808.00;;;4.82;100.00
5350;BME280;2697;42.144;24.794;2023-01-28T05:47:45;153793.63;;;4.76;100.00
5350;BME280;2697;42.144;24.794;2023-01-28T05:50:12;153759.53;;;4.63;100.00
5350;BME280;2697;42.144;24.794;2023-01-28T05:52:38;153836.84;;;4.93;100.00
5350;BME280;2697;42.144;24.794;2023-01-28T05:55:03;153814.59;;;4.84;100.00
5350;BME280;2697;42.144;24.794;2023-01-28T05:57:29;153814.59;;;4.84;100.00
5350;BME280;2697;42.144;24.794;2023-01-28T05:59:54;153827.69;;;4.90;100.00
5350;BME280;2697;42.144;24.794;2023-01-28T06:02:20;153815.91;;;4.85;100.00
5350;BME280;2697;42.144;24.794;2023-01-28T06:04:45;153806.69;;;4.81;100.00
5350;BME280;2697;42.144;24.794;2023-01-28T06:07:11;153825.06;;;4.89;100.00
5350;BME280;2697;42.144;24.794;2023-01-28T06:09:38;153823.75;;;4.88;100.00
5350;BME280;2697;42.144;24.794;2023-01-28T06:12:04;153818.53;;;4.86;100.00
5350;BME280;2697;42.144;24.794;2023-01-28T06:14:29;153814.59;;;4.84;100.00
5350;BME280;2697;42.144;24.794;2023-01-28T06:16:55;153859.13;;;5.02;100.00
5350;BME280;2697;42.144;24.794;2023-01-28T06:19:20;153835.53;;;4.93;100.00
5350;BME280;2697;42.144;24.794;2023-01-28T06:21:45;153814.59;;;4.84;100.00
5350;BME280;2697;42.144;24.794;2023-01-28T06:24:11;153840.81;;;4.95;100.00
5350;BME280;2697;42.144;24.794;2023-01-28T06:26:38;153843.41;;;4.96;100.00
5350;BME280;2697;42.144;24.794;2023-01-28T06:29:03;153851.25;;;4.99;100.00
5350;BME280;2697;42.144;24.794;2023-01-28T06:31:29;153864.41;;;5.04;100.00
5350;BME280;2697;42.144;24.794;2023-01-28T06:33:54;153878.78;;;5.09;100.00
5350;BME280;2697;42.144;24.794;2023-01-28T06:36:20;153870.94;;;5.06;100.00
5350;BME280;2697;42.144;24.794;2023-01-28T06:38:45;153843.41;;;4.96;100.00
5350;BME280;2697;42.144;24.794;2023-01-28T06:41:11;153846.03;;;4.97;100.00
5350;BME280;2697;42.144;24.794;2023-01-28T06:43:36;153906.31;;;5.20;100.00
5350;BME280;2697;42.144;24.794;2023-01-28T06:46:01;153885.38;;;5.12;100.00
5350;BME280;2697;42.144;24.794;2023-01-28T06:48:27;153905.00;;;5.20;100.00
5350;BME280;2697;42.144;24.794;2023-01-28T06:50:53;153901.06;;;5.18;100.00
5350;BME280;2697;42.144;24.794;2023-01-28T06:53:18;153928.59;;;5.29;100.00
5350;BME280;2697;42.144;24.794;2023-01-28T06:55:44;153948.28;;;5.36;100.00
5350;BME280;2697;42.144;24.794;2023-01-28T06:58:10;153929.91;;;5.29;100.00
5350;BME280;2697;42.144;24.794;2023-01-28T07:00:35;153982.41;;;5.50;100.00
5350;BME280;2697;42.144;24.794;2023-01-28T07:03:02;153978.41;;;5.48;100.00
5350;BME280;2697;42.144;24.794;2023-01-28T07:05:27;153956.13;;;5.39;100.00
5350;BME280;2697;42.144;24.794;2023-01-28T07:07:53;153977.09;;;5.48;100.00
5350;BME280;2697;42.144;24.794;2023-01-28T07:10:18;153961.41;;;5.41;100.00
5350;BME280;2697;42.144;24.794;2023-01-28T07:12:43;153954.81;;;5.39;100.00
5350;BME280;2697;42.144;24.794;2023-01-28T07:15:10;153987.63;;;5.52;100.00
5350;BME280;2697;42.144;24.794;2023-01-28T07:17:38;153929.91;;;5.29;100.00
5350;BME280;2697;42.144;24.794;2023-01-28T07:20:06;154034.84;;;5.70;100.00
5350;BME280;2697;42.144;24.794;2023-01-28T07:22:32;154008.63;;;5.60;100.00
5350;BME280;2697;42.144;24.794;2023-01-28T07:24:57;154032.22;;;5.69;100.00
5350;BME280;2697;42.144;24.794;2023-01-28T07:27:23;154067.59;;;5.83;100.00
5350;BME280;2697;42.144;24.794;2023-01-28T07:29:48;154008.63;;;5.60;100.00
5350;BME280;2697;42.144;24.794;2023-01-28T07:32:14;154033.53;;;5.69;100.00
5350;BME280;2697;42.144;24.794;2023-01-28T07:34:40;154045.31;;;5.74;100.00
5350;BME280;2697;42.144;24.794;2023-01-28T07:37:07;153990.25;;;5.53;100.00
5350;BME280;2697;42.144;24.794;2023-01-28T07:39:33;154050.53;;;5.76;100.00
5350;BME280;2697;42.144;24.794;2023-01-28T07:41:59;153991.56;;;5.53;100.00
5350;BME280;2697;42.144;24.794;2023-01-28T07:44:24;154021.69;;;5.65;100.00
5350;BME280;2697;42.144;24.794;2023-01-28T07:46:50;154029.59;;;5.68;100.00
5350;BME280;2697;42.144;24.794;2023-01-28T07:49:15;154095.19;;;5.93;100.00
5350;BME280;2697;42.144;24.794;2023-01-28T07:51:40;154133.25;;;6.08;100.00
5350;BME280;2697;42.144;24.794;2023-01-28T07:54:06;154128.03;;;6.06;100.00
5350;BME280;2697;42.144;24.794;2023-01-28T07:56:31;154154.25;;;6.16;100.00
5350;BME280;2697;42.144;24.794;2023-01-28T07:58:56;154202.81;;;6.35;100.00
5350;BME280;2697;42.144;24.794;2023-01-28T08:01:22;154246.13;;;6.52;100.00
5350;BME280;2697;42.144;24.794;2023-01-28T08:03:47;154235.59;;;6.48;100.00
5350;BME280;2697;42.144;24.794;2023-01-28T08:06:13;154236.91;;;6.48;100.00
5350;BME280;2697;42.144;24.794;2023-01-28T08:08:39;154229.03;;;6.45;100.00
5350;BME280;2697;42.144;24.794;2023-01-28T08:11:08;154248.75;;;6.53;100.00
5350;BME280;2697;42.144;24.794;2023-01-28T08:13:35;154280.22;;;6.65;98.60
5350;BME280;2697;42.144;24.794;2023-01-28T08:16:00;154255.28;;;6.55;99.50
5350;BME280;2697;42.144;24.794;2023-01-28T08:18:26;154268.38;;;6.61;99.75
5350;BME280;2697;42.144;24.794;2023-01-28T08:20:55;154286.78;;;6.68;98.72
5350;BME280;2697;42.144;24.794;2023-01-28T08:23:21;154318.31;;;6.80;96.56
5350;BME280;2697;42.144;24.794;2023-01-28T08:25:47;154348.50;;;6.92;97.06
5350;BME280;2697;42.144;24.794;2023-01-28T08:28:14;154361.59;;;6.97;93.67
5350;BME280;2697;42.144;24.794;2023-01-28T08:30:40;154369.50;;;7.00;95.23
5350;BME280;2697;42.144;24.794;2023-01-28T08:33:07;154394.44;;;7.09;95.58
5350;BME280;2697;42.144;24.794;2023-01-28T08:35:33;154380.00;;;7.04;92.83
5350;BME280;2697;42.144;24.794;2023-01-28T08:38:00;154362.91;;;6.97;94.64
5350;BME280;2697;42.144;24.794;2023-01-28T08:40:25;154355.03;;;6.94;92.12
5350;BME280;2697;42.144;24.794;2023-01-28T08:42:53;154336.66;;;6.87;93.89
5350;BME280;2697;42.144;24.794;2023-01-28T08:45:20;154404.94;;;7.13;90.98
5350;BME280;2697;42.144;24.794;2023-01-28T08:47:54;154410.16;;;7.15;92.06
5350;BME280;2697;42.144;24.794;2023-01-28T08:50:21;154475.84;;;7.41;89.04
5350;BME280;2697;42.144;24.794;2023-01-28T08:52:47;154470.59;;;7.39;88.98
5350;BME280;2697;42.144;24.794;2023-01-28T08:55:14;154538.91;;;7.65;87.58
5350;BME280;2697;42.144;24.794;2023-01-28T08:57:40;154566.50;;;7.76;86.44
5350;BME280;2697;42.144;24.794;2023-01-28T09:00:06;154649.25;;;8.08;84.71
5350;BME280;2697;42.144;24.794;2023-01-28T09:02:32;154628.22;;;8.00;82.19
5350;BME280;2697;42.144;24.794;2023-01-28T09:04:58;154678.19;;;8.19;82.64
5350;BME280;2697;42.144;24.794;2023-01-28T09:07:23;154740.00;;;8.43;80.19
5350;BME280;2697;42.144;24.794;2023-01-28T09:09:48;154718.97;;;8.35;78.92
5350;BME280;2697;42.144;24.794;2023-01-28T09:12:14;154617.72;;;7.96;82.50
5350;BME280;2697;42.144;24.794;2023-01-28T09:14:41;154661.09;;;8.13;80.23
5350;BME280;2697;42.144;24.794;2023-01-28T09:17:06;154730.81;;;8.40;78.09
5350;BME280;2697;42.144;24.794;2023-01-28T09:19:31;154665.03;;;8.14;80.10
5350;BME280;2697;42.144;24.794;2023-01-28T09:21:57;154630.88;;;8.01;80.60
5350;BME280;2697;42.144;24.794;2023-01-28T09:24:22;154640.06;;;8.05;79.79
5350;BME280;2697;42.144;24.794;2023-01-28T09:26:48;154622.97;;;7.98;79.92
5350;BME280;2697;42.144;24.794;2023-01-28T09:29:14;154615.09;;;7.95;82.13
5350;BME280;2697;42.144;24.794;2023-01-28T09:31:40;154611.16;;;7.93;79.59
5350;BME280;2697;42.144;24.794;2023-01-28T09:34:08;154552.03;;;7.70;80.70
5350;BME280;2697;42.144;24.794;2023-01-28T09:36:33;154561.25;;;7.74;80.40
5350;BME280;2697;42.144;24.794;2023-01-28T09:39:00;154570.44;;;7.78;81.13
5350;BME280;2697;42.144;24.794;2023-01-28T09:41:28;154638.75;;;8.04;80.04
5350;BME280;2697;42.144;24.794;2023-01-28T09:44:12;154604.56;;;7.91;79.42
5350;BME280;2697;42.144;24.794;2023-01-28T09:46:43;154575.66;;;7.80;78.57
5350;BME280;2697;42.144;24.794;2023-01-28T09:49:37;154640.06;;;8.05;77.11
5350;BME280;2697;42.144;24.794;2023-01-28T09:52:15;154676.84;;;8.19;75.58
5350;BME280;2697;42.144;24.794;2023-01-28T09:54:44;154786.00;;;8.61;75.74
5350;BME280;2697;42.144;24.794;2023-01-28T09:57:40;154754.47;;;8.49;77.04
5350;BME280;2697;42.144;24.794;2023-01-28T10:00:15;154896.47;;;9.04;74.66
5350;BME280;2697;42.144;24.794;2023-01-28T10:03:11;154870.19;;;8.94;74.18
5350;BME280;2697;42.144;24.794;2023-01-28T10:09:07;154835.97;;;8.80;71.51
5350;BME280;2697;42.144;24.794;2023-01-28T10:11:38;154854.38;;;8.88;73.96
5350;BME280;2697;42.144;24.794;2023-01-28T10:14:46;154814.94;;;8.72;72.79
5350;BME280;2697;42.144;24.794;2023-01-28T10:17:06;154701.84;;;8.28;73.96
5350;BME280;2697;42.144;24.794;2023-01-28T10:20:17;154721.59;;;8.36;75.36
5350;BME280;2697;42.144;24.794;2023-01-28T10:22:42;154704.47;;;8.29;75.43
5350;BME280;2697;42.144;24.794;2023-01-28T10:25:21;154767.59;;;8.54;74.99
5350;BME280;2697;42.144;24.794;2023-01-28T10:27:48;154804.44;;;8.68;74.58
5350;BME280;2697;42.144;24.794;2023-01-28T10:30:23;154770.22;;;8.55;73.76
5350;BME280;2697;42.144;24.794;2023-01-28T10:33:00;154746.56;;;8.46;74.33
5350;BME280;2697;42.144;24.794;2023-01-28T10:35:28;154761.03;;;8.51;74.95
5350;BME280;2697;42.144;24.794;2023-01-28T10:38:01;154746.56;;;8.46;75.68
5350;BME280;2697;42.144;24.794;2023-01-28T10:40:30;154821.53;;;8.75;74.13
5350;BME280;2697;42.144;24.794;2023-01-28T10:42:56;154783.38;;;8.60;74.69
5350;BME280;2697;42.144;24.794;2023-01-28T10:45:27;154784.69;;;8.61;75.15
5350;BME280;2697;42.144;24.794;2023-01-28T10:50:28;154732.13;;;8.40;75.98
5350;BME280;2697;42.144;24.794;2023-01-28T10:52:56;154733.44;;;8.41;76.74
5350;BME280;2697;42.144;24.794;2023-01-28T10:58:15;154746.56;;;8.46;74.87
5350;BME280;2697;42.144;24.794;2023-01-28T11:00:42;154749.22;;;8.47;74.21
5350;BME280;2697;42.144;24.794;2023-01-28T11:03:17;154714.97;;;8.34;74.65
5350;BME280;2697;42.144;24.794;2023-01-28T11:05:49;154807.06;;;8.69;75.99
5350;BME280;2697;42.144;24.794;2023-01-28T11:08:16;154834.66;;;8.80;74.48
5350;BME280;2697;42.144;24.794;2023-01-28T11:10:44;154838.59;;;8.81;74.15
5350;BME280;2697;42.144;24.794;2023-01-28T11:16:01;154808.38;;;8.70;73.37
5350;BME280;2697;42.144;24.794;2023-01-28T11:18:30;154843.84;;;8.83;74.92
5350;BME280;2697;42.144;24.794;2023-01-28T11:20:59;154857.00;;;8.89;74.89
5350;BME280;2697;42.144;24.794;2023-01-28T11:23:27;154926.72;;;9.16;75.36
5350;BME280;2697;42.144;24.794;2023-01-28T11:26:30;155018.81;;;9.51;70.10
5350;BME280;2697;42.144;24.794;2023-01-28T11:28:57;155009.56;;;9.48;72.42
5350;BME280;2697;42.144;24.794;2023-01-28T11:31:23;155062.25;;;9.68;72.83
5350;BME280;2697;42.144;24.794;2023-01-28T11:33:56;154925.41;;;9.15;75.44
5350;BME280;2697;42.144;24.794;2023-01-28T11:36:25;154959.59;;;9.28;73.78
5350;BME280;2697;42.144;24.794;2023-01-28T11:39:02;154935.91;;;9.19;75.63
5350;BME280;2697;42.144;24.794;2023-01-28T11:41:32;154930.66;;;9.17;74.60
5350;BME280;2697;42.144;24.794;2023-01-28T11:43:59;154884.63;;;8.99;76.80
5350;BME280;2697;42.144;24.794;2023-01-28T11:49:58;154875.44;;;8.96;76.62
5350;BME280;2697;42.144;24.794;2023-01-28T11:58:19;154828.09;;;8.77;75.70
5350;BME280;2697;42.144;24.794;2023-01-28T12:01:11;154770.22;;;8.55;77.55
5350;BME280;2697;42.144;24.794;2023-01-28T12:09:24;154733.44;;;8.41;78.38
5350;BME280;2697;42.144;24.794;2023-01-28T12:15:25;154720.28;;;8.36;78.78
5350;BME280;2697;42.144;24.794;2023-01-28T12:18:11;154682.13;;;8.21;77.76
5350;BME280;2697;42.144;24.794;2023-01-28T12:23:38;154688.69;;;8.23;80.01
5350;BME280;2697;42.144;24.794;2023-01-28T12:31:54;154714.97;;;8.34;81.06
5350;BME280;2697;42.144;24.794;2023-01-28T12:42:40;154541.53;;;7.66;91.74
5350;BME280;2697;42.144;24.794;2023-01-28T12:45:32;154544.16;;;7.67;92.12
5350;BME280;2697;42.144;24.794;2023-01-28T12:48:07;154502.13;;;7.51;93.23
5350;BME280;2697;42.144;24.794;2023-01-28T12:50:42;154481.09;;;7.43;91.26
5350;BME280;2697;42.144;24.794;2023-01-28T12:53:38;154462.75;;;7.36;94.06
5350;BME280;2697;42.144;24.794;2023-01-28T12:56:14;154391.81;;;7.08;98.98
5350;BME280;2697;42.144;24.794;2023-01-28T12:59:01;154373.44;;;7.01;100.00
5350;BME280;2697;42.144;24.794;2023-01-28T13:01:34;154376.06;;;7.02;100.00
5350;BME280;2697;42.144;24.794;2023-01-28T13:07:09;154353.72;;;6.94;100.00
5350;BME280;2697;42.144;24.794;2023-01-28T13:09:43;154351.13;;;6.93;100.00
5350;BME280;2697;42.144;24.794;2023-01-28T13:12:12;154335.34;;;6.86;100.00
5350;BME280;2697;42.144;24.794;2023-01-28T13:14:39;154336.66;;;6.87;100.00
5350;BME280;2697;42.144;24.794;2023-01-28T13:17:22;154276.28;;;6.64;100.00
5350;BME280;2697;42.144;24.794;2023-01-28T13:19:48;154208.03;;;6.37;100.00
5350;BME280;2697;42.144;24.794;2023-01-28T13:22:34;154239.53;;;6.49;100.00
5350;BME280;2697;42.144;24.794;2023-01-28T13:25:24;154184.41;;;6.28;100.00
5350;BME280;2697;42.144;24.794;2023-01-28T13:27:59;154215.91;;;6.40;100.00
5350;BME280;2697;42.144;24.794;2023-01-28T13:30:30;154192.28;;;6.31;100.00
5350;BME280;2697;42.144;24.794;2023-01-28T13:33:01;154208.03;;;6.37;100.00
5350;BME280;2697;42.144;24.794;2023-01-28T13:35:38;154194.91;;;6.32;100.00
5350;BME280;2697;42.144;24.794;2023-01-28T13:38:15;154200.19;;;6.34;100.00
5350;BME280;2697;42.144;24.794;2023-01-28T13:40:42;154239.53;;;6.49;100.00
5350;BME280;2697;42.144;24.794;2023-01-28T13:45:56;154209.34;;;6.38;100.00
5350;BME280;2697;42.144;24.794;2023-01-28T13:51:23;154194.91;;;6.32;100.00
5350;BME280;2697;42.144;24.794;2023-01-28T13:54:17;154167.34;;;6.21;100.00
5350;BME280;2697;42.144;24.794;2023-01-28T14:05:13;154053.22;;;5.77;100.00
5350;BME280;2697;42.144;24.794;2023-01-28T14:18:41;154032.22;;;5.69;100.00
5350;BME280;2697;42.144;24.794;2023-01-28T14:21:12;153969.25;;;5.44;100.00
5350;BME280;2697;42.144;24.794;2023-01-28T14:23:43;153998.09;;;5.56;100.00
5350;BME280;2697;42.144;24.794;2023-01-28T14:31:38;154037.47;;;5.71;100.00
5350;BME280;2697;42.144;24.794;2023-01-28T14:34:35;154037.47;;;5.71;100.00
5350;BME280;2697;42.144;24.794;2023-01-28T14:37:07;153999.41;;;5.56;100.00
5350;BME280;2697;42.144;24.794;2023-01-28T14:45:17;154011.22;;;5.61;100.00
5350;BME280;2697;42.144;24.794;2023-01-28T14:51:03;154049.25;;;5.76;100.00
5350;BME280;2697;42.144;24.794;2023-01-28T14:56:30;154026.94;;;5.67;100.00
5350;BME280;2697;42.144;24.794;2023-01-28T14:59:41;154050.53;;;5.76;100.00
5350;BME280;2697;42.144;24.794;2023-01-28T15:02:22;154042.69;;;5.73;100.00
5350;BME280;2697;42.144;24.794;2023-01-28T15:04:49;154015.16;;;5.62;100.00